Time;durP1;ratioP1;P1;durP2;ratioP2;P2;SDS_P1;SDS_P2;PMS_P1;PMS_P2;Temp;Humidity;BMP_temperature;BMP_pressure;BME280_temperature;BME280_humidity;BME280_pressure;Samples;Min_cycle;Max_cycle;Signal;HPM_P1;HPM_P2
2023/09/20 00:00:13;;;;;;;18.70;11.07;;;;;;;;;;5070309;28;20029;-62
2023/09/20 00:02:42;;;;;;;19.42;12.27;;;;;;;;;;5070362;28;20024;-62
2023/09/20 00:05:14;;;;;;;19.52;11.25;;;;;;;;;;5070440;28;20044;-63
2023/09/20 00:07:41;;;;;;;17.55;12.15;;;;;;;;;;5070279;28;20023;-62
2023/09/20 00:10:12;;;;;;;18.75;11.20;;;;;;;;;;5070122;28;20612;-64
2023/09/20 00:12:38;;;;;;;17.52;11.40;;;;;;;;;;5070287;28;20016;-62
2023/09/20 00:15:05;;;;;;;17.67;11.02;;;;;;;;;;5051413;28;20097;-62
2023/09/20 00:17:34;;;;;;;18.80;11.60;;;;;;;;;;5063048;28;20013;-62
2023/09/20 00:20:02;;;;;;;22.02;12.32;;;;;;;;;;5069896;28;20013;-64
2023/09/20 00:22:28;;;;;;;18.38;11.20;;;;;;;;;;5070181;28;20072;-62
2023/09/20 00:24:55;;;;;;;17.73;11.07;;;;;;;;;;5070202;28;20648;-63
2023/09/20 00:27:21;;;;;;;19.00;11.25;;;;;;;;;;5069077;28;20063;-62
2023/09/20 00:29:47;;;;;;;21.30;12.40;;;;;;;;;;5051831;28;20017;-62
2023/09/20 00:32:13;;;;;;;17.05;11.15;;;;;;;;;;5070155;28;20098;-62
2023/09/20 00:34:39;;;;;;;18.92;11.48;;;;;;;;;;5070213;28;20055;-63
2023/09/20 00:37:05;;;;;;;19.38;11.23;;;;;;;;;;5069985;28;20072;-63
2023/09/20 00:39:31;;;;;;;19.42;11.63;;;;;;;;;;5052021;28;20186;-62
2023/09/20 00:42:00;;;;;;;18.80;11.50;;;;;;;;;;5069817;28;20013;-63
2023/09/20 00:44:26;;;;;;;16.50;10.75;;;;;;;;;;5070199;28;20432;-62
2023/09/20 00:46:52;;;;;;;18.02;11.23;;;;;;;;;;5051941;28;20016;-62
2023/09/20 00:49:20;;;;;;;19.13;11.93;;;;;;;;;;5069811;28;20082;-62
2023/09/20 00:51:47;;;;;;;17.38;11.00;;;;;;;;;;5069857;28;20024;-62
2023/09/20 00:54:13;;;;;;;17.75;11.13;;;;;;;;;;5069937;28;20082;-62
2023/09/20 00:56:40;;;;;;;19.35;11.07;;;;;;;;;;5052237;28;20107;-62
2023/09/20 00:59:07;;;;;;;19.90;11.02;;;;;;;;;;5069887;28;20020;-62
2023/09/20 01:01:36;;;;;;;19.63;11.07;;;;;;;;;;5069970;28;20013;-63
2023/09/20 01:04:02;;;;;;;19.70;11.10;;;;;;;;;;5069953;28;20070;-62
2023/09/20 01:06:28;;;;;;;18.35;11.02;;;;;;;;;;5066115;28;20396;-61
2023/09/20 01:08:55;;;;;;;17.80;10.75;;;;;;;;;;5065271;28;20074;-62
2023/09/20 01:11:21;;;;;;;17.60;11.73;;;;;;;;;;5069551;28;20036;-63
2023/09/20 01:13:47;;;;;;;19.25;11.23;;;;;;;;;;5069747;28;20070;-62
2023/09/20 01:16:15;;;;;;;17.33;10.73;;;;;;;;;;5069851;28;20021;-62
2023/09/20 01:18:44;;;;;;;21.27;11.30;;;;;;;;;;5070174;28;20021;-62
2023/09/20 01:21:11;;;;;;;17.77;10.88;;;;;;;;;;5051578;28;20278;-62
2023/09/20 01:23:38;;;;;;;17.83;10.93;;;;;;;;;;5069641;28;20385;-63
2023/09/20 01:26:04;;;;;;;18.00;11.23;;;;;;;;;;5069470;28;20047;-62
2023/09/20 01:28:30;;;;;;;18.83;11.43;;;;;;;;;;5069222;28;20111;-62
2023/09/20 01:30:58;;;;;;;18.55;11.27;;;;;;;;;;5051173;28;20020;-61
2023/09/20 01:33:25;;;;;;;17.77;11.50;;;;;;;;;;5069297;28;20021;-62
2023/09/20 01:35:51;;;;;;;20.83;11.70;;;;;;;;;;5051561;28;20017;-61
2023/09/20 01:38:17;;;;;;;17.50;11.10;;;;;;;;;;5070370;28;20028;-63
2023/09/20 01:40:46;;;;;;;18.40;11.30;;;;;;;;;;5073030;28;20066;-62
2023/09/20 01:43:13;;;;;;;17.55;11.05;;;;;;;;;;5055256;28;20024;-63
2023/09/20 01:45:42;;;;;;;20.40;11.20;;;;;;;;;;5073092;28;20028;-62
2023/09/20 01:48:11;;;;;;;18.17;11.43;;;;;;;;;;5072773;28;20107;-62
2023/09/20 01:50:38;;;;;;;17.35;11.48;;;;;;;;;;5072844;28;20031;-62
2023/09/20 01:53:10;;;;;;;17.10;11.05;;;;;;;;;;5072759;28;20025;-62
2023/09/20 01:55:42;;;;;;;18.15;10.95;;;;;;;;;;5072958;28;20100;-62
2023/09/20 01:58:12;;;;;;;17.63;11.02;;;;;;;;;;5072521;28;20025;-62
2023/09/20 02:00:40;;;;;;;18.13;11.82;;;;;;;;;;5054600;28;20070;-62
2023/09/20 02:03:16;;;;;;;18.65;11.35;;;;;;;;;;5072592;28;20024;-62
2023/09/20 02:05:47;;;;;;;17.70;11.45;;;;;;;;;;5054663;28;20025;-62
2023/09/20 02:08:13;;;;;;;17.85;11.70;;;;;;;;;;5054618;28;20115;-62
2023/09/20 02:10:39;;;;;;;17.33;11.20;;;;;;;;;;5072345;28;20096;-62
2023/09/20 02:13:06;;;;;;;18.10;11.02;;;;;;;;;;5054803;28;20036;-62
2023/09/20 02:15:36;;;;;;;23.58;11.80;;;;;;;;;;5072389;28;20024;-62
2023/09/20 02:18:05;;;;;;;20.65;11.90;;;;;;;;;;5072445;28;20017;-64
2023/09/20 02:20:34;;;;;;;;;;;;;;;;;;5072537;28;20017;-62
2023/09/20 02:23:00;;;;;;;18.00;11.00;;;;;;;;;;5072291;28;19904;-63
2023/09/20 02:25:26;;;;;;;18.92;11.60;;;;;;;;;;5072386;28;20061;-62
2023/09/20 02:27:54;;;;;;;18.40;11.70;;;;;;;;;;5072092;28;20024;-62
2023/09/20 02:30:24;;;;;;;17.02;10.80;;;;;;;;;;5071954;28;20025;-62
2023/09/20 02:32:52;;;;;;;19.50;11.57;;;;;;;;;;5072102;28;20032;-62
2023/09/20 02:35:18;;;;;;;19.42;10.70;;;;;;;;;;5072117;28;20029;-62
2023/09/20 02:37:46;;;;;;;20.88;11.63;;;;;;;;;;5072213;28;20024;-62
2023/09/20 02:40:14;;;;;;;19.95;11.07;;;;;;;;;;5071951;28;20016;-62
2023/09/20 02:42:54;;;;;;;18.42;11.32;;;;;;;;;;5072042;28;20021;-62
2023/09/20 02:45:20;;;;;;;18.10;11.50;;;;;;;;;;5053901;28;20016;-62
2023/09/20 02:47:46;;;;;;;19.88;10.95;;;;;;;;;;5071824;28;20017;-62
2023/09/20 02:50:13;;;;;;;18.25;10.88;;;;;;;;;;5070541;28;20025;-62
2023/09/20 02:52:40;;;;;;;18.95;11.05;;;;;;;;;;5071873;28;20048;-62
2023/09/20 02:55:07;;;;;;;18.77;10.73;;;;;;;;;;5053714;28;20021;-62
2023/09/20 02:57:39;;;;;;;19.77;11.88;;;;;;;;;;5071606;28;20017;-62
2023/09/20 03:00:15;;;;;;;18.33;10.85;;;;;;;;;;5053583;28;20025;-62
2023/09/20 03:02:45;;;;;;;19.35;11.27;;;;;;;;;;5071822;28;20481;-63
2023/09/20 03:05:15;;;;;;;18.25;11.02;;;;;;;;;;5071774;28;20556;-62
2023/09/20 03:07:45;;;;;;;20.75;11.50;;;;;;;;;;5071614;28;20073;-62
2023/09/20 03:10:12;;;;;;;19.20;10.93;;;;;;;;;;5053276;28;20367;-62
2023/09/20 03:12:43;;;;;;;19.13;10.90;;;;;;;;;;5053332;28;20496;-62
2023/09/20 03:15:10;;;;;;;19.52;11.20;;;;;;;;;;5071195;28;20028;-63
2023/09/20 03:17:37;;;;;;;20.73;11.00;;;;;;;;;;5071257;28;20545;-62
2023/09/20 03:20:10;;;;;;;18.85;11.15;;;;;;;;;;5052895;28;20008;-62
2023/09/20 03:22:37;;;;;;;17.35;10.95;;;;;;;;;;5053274;28;20398;-62
2023/09/20 03:25:13;;;;;;;20.35;11.27;;;;;;;;;;5070962;28;20428;-62
2023/09/20 03:27:40;;;;;;;19.52;11.07;;;;;;;;;;5070837;28;20035;-63
2023/09/20 03:30:08;;;;;;;18.30;11.75;;;;;;;;;;5052789;28;20518;-63
2023/09/20 03:32:34;;;;;;;18.90;10.97;;;;;;;;;;5070706;28;20012;-63
2023/09/20 03:35:00;;;;;;;18.10;11.63;;;;;;;;;;5052544;28;20618;-63
2023/09/20 03:37:27;;;;;;;20.25;10.98;;;;;;;;;;5052940;28;20021;-63
2023/09/20 03:39:53;;;;;;;19.35;11.48;;;;;;;;;;5070753;28;20016;-63
2023/09/20 03:42:19;;;;;;;20.10;11.35;;;;;;;;;;5052680;28;20123;-63
2023/09/20 03:44:45;;;;;;;22.25;11.43;;;;;;;;;;5070720;28;20024;-62
2023/09/20 03:47:12;;;;;;;19.60;10.90;;;;;;;;;;5052535;28;20506;-63
2023/09/20 03:49:38;;;;;;;18.40;10.80;;;;;;;;;;5070691;28;20103;-63
2023/09/20 03:52:06;;;;;;;20.95;10.88;;;;;;;;;;5070349;28;20070;-63
2023/09/20 03:54:32;;;;;;;18.17;10.67;;;;;;;;;;5070458;28;20025;-63
2023/09/20 03:56:58;;;;;;;17.90;10.93;;;;;;;;;;5070276;28;20485;-63
2023/09/20 03:59:26;;;;;;;21.55;11.80;;;;;;;;;;5070298;28;20021;-63
2023/09/20 04:01:52;;;;;;;17.20;10.43;;;;;;;;;;5070172;28;20095;-62
2023/09/20 04:04:19;;;;;;;18.65;10.77;;;;;;;;;;5070302;28;20039;-63
2023/09/20 04:06:45;;;;;;;19.95;10.68;;;;;;;;;;5070270;28;20023;-63
2023/09/20 04:09:11;;;;;;;26.77;11.93;;;;;;;;;;5070249;28;20033;-62
2023/09/20 04:11:38;;;;;;;19.35;11.90;;;;;;;;;;5052023;28;20071;-62
2023/09/20 04:14:06;;;;;;;19.05;11.38;;;;;;;;;;5052248;28;20074;-63
2023/09/20 04:16:32;;;;;;;19.55;11.50;;;;;;;;;;5070111;28;20023;-63
2023/09/20 04:18:58;;;;;;;17.63;11.38;;;;;;;;;;5070170;28;20009;-63
2023/09/20 04:21:24;;;;;;;18.40;11.73;;;;;;;;;;5069912;28;20063;-65
2023/09/20 04:23:50;;;;;;;18.67;11.30;;;;;;;;;;5052148;28;20501;-63
2023/09/20 04:26:16;;;;;;;18.05;11.18;;;;;;;;;;5069608;28;20033;-63
2023/09/20 04:28:42;;;;;;;19.02;11.13;;;;;;;;;;5070019;28;20036;-63
2023/09/20 04:31:09;;;;;;;18.83;10.93;;;;;;;;;;5051718;28;20085;-63
2023/09/20 04:33:36;;;;;;;20.20;11.20;;;;;;;;;;5069848;28;20062;-63
2023/09/20 04:36:04;;;;;;;21.00;10.95;;;;;;;;;;5069660;28;20021;-63
2023/09/20 04:38:30;;;;;;;19.27;10.90;;;;;;;;;;5069668;28;20016;-63
2023/09/20 04:40:59;;;;;;;18.63;10.98;;;;;;;;;;5069165;28;20027;-63
2023/09/20 04:43:25;;;;;;;20.40;10.80;;;;;;;;;;5069832;28;20088;-62
2023/09/20 04:45:51;;;;;;;18.95;10.98;;;;;;;;;;5069667;28;20044;-63
2023/09/20 04:48:17;;;;;;;18.55;10.88;;;;;;;;;;5051474;28;20121;-62
2023/09/20 04:50:43;;;;;;;20.58;10.73;;;;;;;;;;5069480;28;20025;-63
2023/09/20 04:53:09;;;;;;;20.23;10.73;;;;;;;;;;5069631;28;20028;-63
2023/09/20 04:55:35;;;;;;;19.00;10.80;;;;;;;;;;5070036;28;20056;-64
2023/09/20 04:58:01;;;;;;;17.38;10.32;;;;;;;;;;5069865;28;20466;-62
2023/09/20 05:00:33;;;;;;;18.48;11.38;;;;;;;;;;5051375;28;20025;-62
2023/09/20 05:03:03;;;;;;;20.20;10.85;;;;;;;;;;5051496;28;20490;-64
2023/09/20 05:05:29;;;;;;;19.15;10.88;;;;;;;;;;5069496;28;20028;-62
2023/09/20 05:07:56;;;;;;;20.73;11.35;;;;;;;;;;5060976;28;20024;-63
2023/09/20 05:10:22;;;;;;;18.42;10.55;;;;;;;;;;5068860;28;20025;-62
2023/09/20 05:12:48;;;;;;;19.80;11.57;;;;;;;;;;5069394;28;20548;-63
2023/09/20 05:15:15;;;;;;;18.05;10.35;;;;;;;;;;5073381;28;20025;-64
2023/09/20 05:17:43;;;;;;;18.65;10.80;;;;;;;;;;5073124;28;20029;-63
2023/09/20 05:20:11;;;;;;;21.00;11.38;;;;;;;;;;5072841;28;20158;-63
2023/09/20 05:22:37;;;;;;;17.77;10.93;;;;;;;;;;5072986;28;20009;-63
2023/09/20 05:25:03;;;;;;;17.63;10.80;;;;;;;;;;5070277;28;20047;-63
2023/09/20 05:27:29;;;;;;;18.58;11.02;;;;;;;;;;5087647;28;20028;-63
2023/09/20 05:29:56;;;;;;;20.77;11.57;;;;;;;;;;5072815;28;20036;-62
2023/09/20 05:32:23;;;;;;;18.77;10.55;;;;;;;;;;5054882;28;20474;-62
2023/09/20 05:34:50;;;;;;;19.58;10.35;;;;;;;;;;5055607;28;20089;-63
2023/09/20 05:37:16;;;;;;;20.08;10.63;;;;;;;;;;5064655;28;20048;-63
2023/09/20 05:39:48;;;;;;;19.17;11.48;;;;;;;;;;5054451;28;20081;-63
2023/09/20 05:42:14;;;;;;;17.00;10.65;;;;;;;;;;5072414;28;20494;-63
2023/09/20 05:44:41;;;;;;;19.73;10.68;;;;;;;;;;5073029;28;20024;-62
2023/09/20 05:47:10;;;;;;;17.17;10.48;;;;;;;;;;5072439;28;20033;-63
2023/09/20 05:49:36;;;;;;;17.55;10.05;;;;;;;;;;5054422;28;20024;-63
2023/09/20 05:52:05;;;;;;;16.70;10.77;;;;;;;;;;5054275;28;20074;-64
2023/09/20 05:54:31;;;;;;;20.40;11.50;;;;;;;;;;5072368;28;20028;-63
2023/09/20 05:56:59;;;;;;;23.90;11.35;;;;;;;;;;5072358;28;20013;-63
2023/09/20 05:59:26;;;;;;;18.27;10.98;;;;;;;;;;5066548;28;20385;-64
2023/09/20 06:01:52;;;;;;;18.88;11.10;;;;;;;;;;5054421;28;20085;-63
2023/09/20 06:04:19;;;;;;;17.55;10.82;;;;;;;;;;5054521;28;20028;-65
2023/09/20 06:06:45;;;;;;;20.48;11.48;;;;;;;;;;5072036;28;20017;-64
2023/09/20 06:09:11;;;;;;;18.30;10.80;;;;;;;;;;5054255;28;20025;-63
2023/09/20 06:11:37;;;;;;;17.98;11.10;;;;;;;;;;5072183;28;20028;-64
2023/09/20 06:14:06;;;;;;;18.73;10.95;;;;;;;;;;5054056;28;20028;-63
2023/09/20 06:16:32;;;;;;;18.88;11.40;;;;;;;;;;5072130;28;20017;-64
2023/09/20 06:18:58;;;;;;;19.33;10.75;;;;;;;;;;5054003;28;20477;-63
2023/09/20 06:21:24;;;;;;;20.45;11.60;;;;;;;;;;5071420;28;20035;-64
2023/09/20 06:23:50;;;;;;;18.25;10.80;;;;;;;;;;5054023;28;20013;-63
2023/09/20 06:26:16;;;;;;;17.80;11.23;;;;;;;;;;5070526;28;20486;-63
2023/09/20 06:28:42;;;;;;;20.45;11.43;;;;;;;;;;5053874;28;20081;-63
2023/09/20 06:31:29;;;;;;;18.63;11.73;;;;;;;;;;5073442;28;20454;-68
2023/09/20 06:33:55;;;;;;;17.42;11.10;;;;;;;;;;5072114;28;20020;-62
2023/09/20 06:36:21;;;;;;;19.08;10.98;;;;;;;;;;5053313;28;20028;-62
2023/09/20 06:38:47;;;;;;;19.40;11.02;;;;;;;;;;5071623;28;20087;-62
2023/09/20 06:41:13;;;;;;;17.67;10.93;;;;;;;;;;5071356;28;20082;-63
2023/09/20 06:43:40;;;;;;;18.73;11.70;;;;;;;;;;5071470;28;20054;-63
2023/09/20 06:46:09;;;;;;;17.52;12.00;;;;;;;;;;5071298;28;20029;-63
2023/09/20 06:48:37;;;;;;;19.08;11.95;;;;;;;;;;5071111;28;20068;-63
2023/09/20 06:51:03;;;;;;;18.88;11.75;;;;;;;;;;5071316;28;20431;-63
2023/09/20 06:53:30;;;;;;;19.33;12.00;;;;;;;;;;5071399;28;20150;-63
2023/09/20 06:55:56;;;;;;;20.55;12.68;;;;;;;;;;5071442;28;20013;-62
2023/09/20 06:58:24;;;;;;;20.35;12.30;;;;;;;;;;5070983;28;20017;-63
2023/09/20 07:00:50;;;;;;;;;;;;;;;;;;5071378;28;20489;-63
2023/09/20 07:03:18;;;;;;;20.30;12.70;;;;;;;;;;5071065;28;19904;-62
2023/09/20 07:05:44;;;;;;;18.02;11.60;;;;;;;;;;5068274;28;20121;-62
2023/09/20 07:08:10;;;;;;;17.77;12.15;;;;;;;;;;5069542;28;20028;-62
2023/09/20 07:10:41;;;;;;;18.52;11.73;;;;;;;;;;5052998;28;20199;-62
2023/09/20 07:13:09;;;;;;;19.70;12.10;;;;;;;;;;5070574;28;20032;-63
2023/09/20 07:15:36;;;;;;;20.00;11.85;;;;;;;;;;5053408;28;20381;-62
2023/09/20 07:18:11;;;;;;;18.98;11.68;;;;;;;;;;5070753;28;20721;-62
2023/09/20 07:20:39;;;;;;;17.63;11.80;;;;;;;;;;5070562;28;20074;-62
2023/09/20 07:23:08;;;;;;;19.95;12.05;;;;;;;;;;5052513;28;20032;-62
2023/09/20 07:25:35;;;;;;;18.88;11.70;;;;;;;;;;5070914;28;20040;-62
2023/09/20 07:28:03;;;;;;;18.85;11.98;;;;;;;;;;5070164;28;20028;-61
2023/09/20 07:30:31;;;;;;;18.45;12.45;;;;;;;;;;5070170;28;20091;-63
2023/09/20 07:32:59;;;;;;;16.63;11.70;;;;;;;;;;5070453;28;20097;-63
2023/09/20 07:35:38;;;;;;;16.35;11.73;;;;;;;;;;5070419;28;20069;-62
2023/09/20 07:38:04;;;;;;;18.65;12.38;;;;;;;;;;5070232;28;20016;-63
2023/09/20 07:40:31;;;;;;;18.70;12.40;;;;;;;;;;5070259;28;20557;-63
2023/09/20 07:43:04;;;;;;;19.33;12.35;;;;;;;;;;5070162;28;20118;-63
2023/09/20 07:45:39;;;;;;;17.45;12.25;;;;;;;;;;5052299;28;20032;-63
2023/09/20 07:48:11;;;;;;;18.85;13.00;;;;;;;;;;5070060;28;20052;-63
2023/09/20 07:50:40;;;;;;;19.63;13.23;;;;;;;;;;5069805;28;20024;-64
2023/09/20 07:53:07;;;;;;;;;;;;;;;;;;5070327;28;20059;-63
2023/09/20 07:55:34;;;;;;;20.23;12.85;;;;;;;;;;5070071;28;19908;-62
2023/09/20 07:58:00;;;;;;;18.35;12.60;;;;;;;;;;5069714;28;20476;-64
2023/09/20 08:00:26;;;;;;;19.48;12.73;;;;;;;;;;5061520;28;20025;-63
2023/09/20 08:02:54;;;;;;;17.95;12.60;;;;;;;;;;5070257;28;20122;-62
2023/09/20 08:05:22;;;;;;;20.58;12.88;;;;;;;;;;5070011;28;20137;-63
2023/09/20 08:07:48;;;;;;;18.47;12.70;;;;;;;;;;5069969;28;20015;-63
2023/09/20 08:10:14;;;;;;;17.45;12.70;;;;;;;;;;5069682;28;20044;-63
2023/09/20 08:12:40;;;;;;;17.65;12.52;;;;;;;;;;5069601;28;20345;-63
2023/09/20 08:15:07;;;;;;;18.13;12.13;;;;;;;;;;5051902;28;20098;-63
2023/09/20 08:20:21;;;;;;;16.75;12.07;;;;;;;;;;5068360;28;20108;-52
2023/09/20 09:01:17;;;;;;;18.60;13.35;;;;;;;;;;5069136;28;20036;-56
2023/09/20 09:03:43;;;;;;;19.65;13.60;;;;;;;;;;5069280;28;20040;-58
2023/09/20 09:06:09;;;;;;;18.75;12.88;;;;;;;;;;5051433;28;20027;-57
2023/09/20 09:08:35;;;;;;;16.65;12.75;;;;;;;;;;5069739;28;20074;-51
2023/09/20 09:11:01;;;;;;;18.27;12.40;;;;;;;;;;5068296;28;20029;-56
2023/09/20 09:13:28;;;;;;;17.10;12.23;;;;;;;;;;5068757;28;20056;-58
2023/09/20 09:15:54;;;;;;;19.50;12.85;;;;;;;;;;5068655;28;20516;-57
2023/09/20 09:18:21;;;;;;;18.52;12.35;;;;;;;;;;5050367;28;20417;-55
2023/09/20 09:20:49;;;;;;;17.05;12.65;;;;;;;;;;5068346;28;20021;-54
2023/09/20 09:23:30;;;;;;;15.80;12.17;;;;;;;;;;5068474;28;20056;-56
2023/09/20 09:25:56;;;;;;;17.25;12.38;;;;;;;;;;5069538;28;20029;-53
2023/09/20 09:28:25;;;;;;;17.42;12.90;;;;;;;;;;5069523;28;20089;-55
2023/09/20 09:30:52;;;;;;;16.33;12.07;;;;;;;;;;5069458;28;20486;-57
2023/09/20 09:33:18;;;;;;;15.60;12.00;;;;;;;;;;5069368;28;20127;-53
2023/09/20 09:35:50;;;;;;;17.70;12.25;;;;;;;;;;5069711;28;20074;-56
2023/09/20 09:38:21;;;;;;;19.15;12.85;;;;;;;;;;5051357;28;20065;-52
2023/09/20 09:40:53;;;;;;;17.67;12.10;;;;;;;;;;5069119;28;20029;-49
2023/09/20 09:43:19;;;;;;;18.73;12.63;;;;;;;;;;5069415;28;20041;-53
2023/09/20 09:45:49;;;;;;;20.50;12.20;;;;;;;;;;5069284;28;20040;-51
2023/09/20 09:48:16;;;;;;;19.60;13.07;;;;;;;;;;5069300;28;20115;-53
2023/09/20 09:50:45;;;;;;;16.88;12.10;;;;;;;;;;5069184;28;20033;-51
2023/09/20 09:53:13;;;;;;;16.65;12.60;;;;;;;;;;5069222;28;20020;-54
2023/09/20 09:55:39;;;;;;;17.35;12.80;;;;;;;;;;5069356;28;20025;-53
2023/09/20 09:58:05;;;;;;;17.05;12.60;;;;;;;;;;5069497;28;20032;-54
2023/09/20 10:00:33;;;;;;;17.00;12.50;;;;;;;;;;5071730;28;20096;-53
2023/09/20 10:03:00;;;;;;;17.60;13.23;;;;;;;;;;5072880;28;20420;-53
2023/09/20 10:05:26;;;;;;;18.02;12.75;;;;;;;;;;5072885;28;20030;-52
2023/09/20 10:07:57;;;;;;;18.33;13.02;;;;;;;;;;5072190;28;20021;-54
2023/09/20 10:10:24;;;;;;;16.90;13.07;;;;;;;;;;5087611;28;20021;-55
2023/09/20 10:12:51;;;;;;;17.02;12.80;;;;;;;;;;5088070;28;20028;-54
2023/09/20 10:15:18;;;;;;;18.13;12.98;;;;;;;;;;5072140;28;20127;-54
2023/09/20 10:17:45;;;;;;;17.08;12.20;;;;;;;;;;5072277;28;20378;-51
2023/09/20 10:20:15;;;;;;;18.02;12.23;;;;;;;;;;5063645;28;20098;-53
2023/09/20 10:22:45;;;;;;;17.65;12.68;;;;;;;;;;5050034;28;20092;-47
2023/09/20 10:25:37;;;;;;;17.35;12.65;;;;;;;;;;5071944;28;20103;-54
2023/09/20 10:28:04;;;;;;;18.85;12.77;;;;;;;;;;5067167;28;21157;-54
2023/09/20 10:30:34;;;;;;;16.20;12.35;;;;;;;;;;5071552;28;20408;-49
2023/09/20 10:33:03;;;;;;;16.67;12.60;;;;;;;;;;5053975;28;20063;-55
2023/09/20 10:35:30;;;;;;;17.88;12.77;;;;;;;;;;5071903;28;20049;-54
2023/09/20 10:38:20;;;;;;;17.52;12.40;;;;;;;;;;5049778;28;20433;-56
2023/09/20 10:40:55;;;;;;;17.77;12.32;;;;;;;;;;5054340;28;20462;-50
2023/09/20 10:43:41;;;;;;;17.42;12.27;;;;;;;;;;5071588;28;20024;-55
2023/09/20 10:46:08;;;;;;;17.88;12.27;;;;;;;;;;5071376;28;20102;-52
2023/09/20 10:48:34;;;;;;;16.25;12.93;;;;;;;;;;5071426;28;20096;-53
2023/09/20 10:51:03;;;;;;;16.65;12.00;;;;;;;;;;5071192;28;20017;-49
2023/09/20 10:53:45;;;;;;;19.85;13.35;;;;;;;;;;5053364;28;20499;-53
2023/09/20 10:56:12;;;;;;;16.38;12.77;;;;;;;;;;5071000;28;20031;-51
2023/09/20 10:58:42;;;;;;;16.20;12.90;;;;;;;;;;5071457;28;20497;-48
2023/09/20 11:01:09;;;;;;;17.45;12.70;;;;;;;;;;5070631;28;20029;-62
2023/09/20 11:03:35;;;;;;;20.45;12.68;;;;;;;;;;5071216;28;20028;-55
2023/09/20 11:06:01;;;;;;;16.70;12.77;;;;;;;;;;5070941;28;20025;-56
2023/09/20 11:08:27;;;;;;;16.13;12.13;;;;;;;;;;5052669;28;20119;-55
2023/09/20 11:10:54;;;;;;;18.13;12.35;;;;;;;;;;5051786;28;20029;-54
2023/09/20 11:13:22;;;;;;;17.65;12.73;;;;;;;;;;5070744;28;20367;-53
2023/09/20 11:15:48;;;;;;;15.97;12.10;;;;;;;;;;5070871;28;20024;-53
2023/09/20 11:18:19;;;;;;;16.48;12.60;;;;;;;;;;5070606;28;20108;-56
2023/09/20 11:20:45;;;;;;;16.90;12.88;;;;;;;;;;5070360;28;20074;-57
2023/09/20 11:23:13;;;;;;;16.90;12.32;;;;;;;;;;5070508;28;20067;-56
2023/09/20 11:25:41;;;;;;;16.23;12.75;;;;;;;;;;5070090;28;20091;-57
2023/09/20 11:28:08;;;;;;;17.58;12.95;;;;;;;;;;5070277;28;20521;-54
2023/09/20 11:30:34;;;;;;;16.77;12.65;;;;;;;;;;5088763;22;20055;-54
2023/09/20 11:33:04;;;;;;;17.02;12.52;;;;;;;;;;5068290;28;20016;-55
2023/09/20 11:35:33;;;;;;;20.90;12.52;;;;;;;;;;5053615;28;20024;-54
2023/09/20 11:38:00;;;;;;;16.27;12.50;;;;;;;;;;5071900;28;20023;-57
2023/09/20 11:40:26;;;;;;;17.52;12.20;;;;;;;;;;5053830;28;20094;-52
2023/09/20 11:42:53;;;;;;;17.17;12.43;;;;;;;;;;5072005;28;20024;-50
2023/09/20 11:45:25;;;;;;;17.75;12.80;;;;;;;;;;5071723;28;20741;-52
2023/09/20 11:47:52;;;;;;;16.73;12.98;;;;;;;;;;5071343;28;20507;-52
2023/09/20 11:50:18;;;;;;;16.85;12.88;;;;;;;;;;5071082;28;20081;-53
2023/09/20 11:52:48;;;;;;;16.20;13.48;;;;;;;;;;5071555;28;20020;-53
2023/09/20 11:55:15;;;;;;;17.35;13.38;;;;;;;;;;5071259;28;20079;-50
2023/09/20 11:57:47;;;;;;;16.77;13.68;;;;;;;;;;5073218;28;20021;-56
2023/09/20 12:00:17;;;;;;;16.70;13.32;;;;;;;;;;5073253;28;20036;-55
2023/09/20 12:02:43;;;;;;;18.63;14.30;;;;;;;;;;5071353;28;20367;-50
2023/09/20 12:05:09;;;;;;;18.92;13.82;;;;;;;;;;5053252;28;20469;-49
2023/09/20 12:07:35;;;;;;;18.30;14.43;;;;;;;;;;5071101;28;20101;-52
2023/09/20 12:10:01;;;;;;;17.90;14.07;;;;;;;;;;5072182;28;20035;-54
2023/09/20 12:12:31;;;;;;;16.48;13.73;;;;;;;;;;5068342;28;20017;-56
2023/09/20 12:14:57;;;;;;;19.15;14.57;;;;;;;;;;5075117;28;20451;-53
2023/09/20 12:17:23;;;;;;;17.10;14.48;;;;;;;;;;5071861;28;20113;-54
2023/09/20 12:19:49;;;;;;;17.58;14.25;;;;;;;;;;5071424;28;20021;-54
2023/09/20 12:22:15;;;;;;;17.85;14.07;;;;;;;;;;5071283;28;20086;-55
2023/09/20 12:24:41;;;;;;;18.25;13.80;;;;;;;;;;5055532;28;20050;-57
2023/09/20 12:27:07;;;;;;;18.30;13.93;;;;;;;;;;5067940;28;20047;-57
2023/09/20 12:29:33;;;;;;;19.10;13.85;;;;;;;;;;5073761;28;20573;-56
2023/09/20 12:31:59;;;;;;;18.10;14.45;;;;;;;;;;5073657;28;20037;-54
2023/09/20 12:34:25;;;;;;;16.63;14.10;;;;;;;;;;5065633;28;20500;-57
2023/09/20 12:36:51;;;;;;;18.00;14.25;;;;;;;;;;5074456;28;20100;-55
2023/09/20 12:39:17;;;;;;;17.95;13.57;;;;;;;;;;5055197;28;20020;-50
2023/09/20 12:41:43;;;;;;;17.30;13.70;;;;;;;;;;5070963;28;20039;-51
2023/09/20 12:44:11;;;;;;;18.40;13.65;;;;;;;;;;5070534;28;20074;-50
2023/09/20 12:46:37;;;;;;;17.55;13.90;;;;;;;;;;5070354;28;20031;-54
2023/09/20 12:49:07;;;;;;;17.58;13.52;;;;;;;;;;5070700;28;20021;-53
2023/09/20 12:51:33;;;;;;;17.58;13.75;;;;;;;;;;5051871;28;20024;-55
2023/09/20 12:53:59;;;;;;;16.77;14.00;;;;;;;;;;5070894;28;20100;-53
2023/09/20 12:56:27;;;;;;;16.90;13.93;;;;;;;;;;5052585;28;20071;-55
2023/09/20 12:58:53;;;;;;;17.17;14.18;;;;;;;;;;5052797;28;20013;-53
2023/09/20 13:01:19;;;;;;;18.52;14.50;;;;;;;;;;5070354;28;20032;-53
2023/09/20 13:03:45;;;;;;;18.73;14.32;;;;;;;;;;5052907;28;20489;-55
2023/09/20 13:06:14;;;;;;;20.92;14.80;;;;;;;;;;5050237;28;20032;-53
2023/09/20 13:08:41;;;;;;;17.73;14.38;;;;;;;;;;5069871;28;20482;-53
2023/09/20 13:11:10;;;;;;;17.45;13.93;;;;;;;;;;5069679;28;20112;-55
2023/09/20 13:13:40;;;;;;;19.00;14.32;;;;;;;;;;5069684;28;20486;-50
2023/09/20 13:16:09;;;;;;;17.77;14.05;;;;;;;;;;5065089;28;20032;-55
2023/09/20 13:18:36;;;;;;;17.63;14.35;;;;;;;;;;5070446;28;20013;-50
2023/09/20 13:21:04;;;;;;;17.10;14.25;;;;;;;;;;5070446;28;20024;-54
2023/09/20 13:23:30;;;;;;;16.92;13.85;;;;;;;;;;5070318;28;20519;-54
2023/09/20 13:25:56;;;;;;;16.40;14.13;;;;;;;;;;5070008;28;20025;-54
2023/09/20 13:28:22;;;;;;;16.30;13.93;;;;;;;;;;5070093;28;20423;-56
2023/09/20 13:30:51;;;;;;;18.48;15.02;;;;;;;;;;5070020;28;20497;-55
2023/09/20 13:33:17;;;;;;;;;;;;;;;;;;5070449;28;20021;-53
2023/09/20 13:35:43;;;;;;;19.25;14.35;;;;;;;;;;5055026;28;19962;-51
2023/09/20 13:38:11;;;;;;;17.92;14.80;;;;;;;;;;5074090;28;20071;-52
2023/09/20 13:40:38;;;;;;;17.80;14.52;;;;;;;;;;5055601;28;20110;-53
2023/09/20 13:43:04;;;;;;;16.60;14.18;;;;;;;;;;5074169;28;20043;-65
2023/09/20 13:45:32;;;;;;;18.65;14.50;;;;;;;;;;5073775;28;20012;-57
2023/09/20 13:47:58;;;;;;;17.07;14.37;;;;;;;;;;5072763;28;20470;-52
2023/09/20 13:50:24;;;;;;;22.83;15.10;;;;;;;;;;5054031;28;20070;-53
2023/09/20 13:52:51;;;;;;;18.38;14.13;;;;;;;;;;5072618;28;20074;-55
2023/09/20 13:55:18;;;;;;;17.90;14.98;;;;;;;;;;5053710;28;20077;-56
2023/09/20 13:57:47;;;;;;;17.65;15.10;;;;;;;;;;5072099;28;20024;-57
2023/09/20 14:00:14;;;;;;;18.95;14.40;;;;;;;;;;5072339;28;20063;-54
2023/09/20 14:02:41;;;;;;;17.58;14.23;;;;;;;;;;5072688;28;20024;-54
2023/09/20 14:05:14;;;;;;;17.15;14.02;;;;;;;;;;5055493;28;20406;-59
2023/09/20 14:07:44;;;;;;;17.90;14.50;;;;;;;;;;5055655;28;20387;-56
2023/09/20 14:10:11;;;;;;;18.88;14.48;;;;;;;;;;5072854;28;20059;-55
2023/09/20 14:12:39;;;;;;;18.63;14.52;;;;;;;;;;5073379;28;20026;-54
2023/09/20 14:15:06;;;;;;;19.00;14.10;;;;;;;;;;5073130;28;20028;-53
2023/09/20 14:17:36;;;;;;;17.10;14.50;;;;;;;;;;5073276;28;20417;-56
2023/09/20 14:20:09;;;;;;;18.02;14.90;;;;;;;;;;5072504;28;20020;-62
2023/09/20 14:22:35;;;;;;;18.05;14.57;;;;;;;;;;5055228;28;20394;-54
2023/09/20 14:25:01;;;;;;;17.23;14.40;;;;;;;;;;5073202;28;20025;-53
2023/09/20 14:27:27;;;;;;;17.58;14.23;;;;;;;;;;5073282;28;20047;-56
2023/09/20 14:29:54;;;;;;;18.20;14.32;;;;;;;;;;5072459;28;20024;-58
2023/09/20 14:32:20;;;;;;;18.42;14.32;;;;;;;;;;5054982;28;20039;-52
2023/09/20 14:34:46;;;;;;;17.80;15.48;;;;;;;;;;5073376;28;20025;-56
2023/09/20 14:37:12;;;;;;;20.67;15.25;;;;;;;;;;5072759;28;20047;-56
2023/09/20 14:39:38;;;;;;;16.85;14.10;;;;;;;;;;5073095;28;20075;-57
2023/09/20 14:42:04;;;;;;;17.38;13.85;;;;;;;;;;5072202;28;20016;-55
2023/09/20 14:44:30;;;;;;;17.08;14.23;;;;;;;;;;5055265;28;20085;-51
2023/09/20 14:47:00;;;;;;;16.67;14.02;;;;;;;;;;5071669;28;20095;-55
2023/09/20 14:49:26;;;;;;;18.05;14.00;;;;;;;;;;5072654;28;20039;-54
2023/09/20 14:51:56;;;;;;;17.95;13.75;;;;;;;;;;5072953;28;20024;-56
2023/09/20 14:54:22;;;;;;;19.27;14.85;;;;;;;;;;5072855;28;20143;-56
2023/09/20 14:56:48;;;;;;;20.95;15.18;;;;;;;;;;5072485;28;20024;-53
2023/09/20 14:59:15;;;;;;;16.98;14.20;;;;;;;;;;5072576;28;20036;-57
2023/09/20 15:01:41;;;;;;;23.77;14.88;;;;;;;;;;5054749;28;20020;-57